createdAt,value
2022-08-17T00:00:49.413Z,23.00
2022-08-17T00:01:51.467Z,23.03
2022-08-17T00:02:36.972Z,22.89
2022-08-17T00:03:36.918Z,22.96
2022-08-17T00:04:36.917Z,22.93
2022-08-17T00:05:36.910Z,22.84
2022-08-17T00:06:36.909Z,22.85
2022-08-17T00:07:36.901Z,22.88
2022-08-17T00:08:36.901Z,22.89
2022-08-17T00:09:36.902Z,22.88
2022-08-17T00:10:36.892Z,22.97
2022-08-17T00:11:36.887Z,22.79
2022-08-17T00:12:43.116Z,22.81
2022-08-17T00:13:36.877Z,22.81
2022-08-17T00:14:36.875Z,22.85
2022-08-17T00:15:36.869Z,22.91
2022-08-17T00:16:56.140Z,22.88
2022-08-17T00:17:36.861Z,22.82
2022-08-17T00:19:02.000Z,22.79
2022-08-17T00:19:36.852Z,22.79
2022-08-17T00:20:36.852Z,22.76
2022-08-17T00:22:32.942Z,22.67
2022-08-17T00:22:36.989Z,22.74
2022-08-17T00:23:36.835Z,22.74
2022-08-17T00:24:36.834Z,22.69
2022-08-17T00:25:36.829Z,22.64
2022-08-17T00:26:45.208Z,22.74
2022-08-17T00:27:36.834Z,22.72
2022-08-17T00:28:36.817Z,22.75
2022-08-17T00:29:36.812Z,22.79
2022-08-17T00:30:53.072Z,22.81
2022-08-17T00:31:36.801Z,22.72
2022-08-17T00:33:12.524Z,22.69
2022-08-17T00:33:36.793Z,22.67
2022-08-17T00:34:36.792Z,22.70
2022-08-17T00:35:36.785Z,22.70
2022-08-17T00:36:36.785Z,22.76
2022-08-17T00:37:36.778Z,22.76
2022-08-17T00:38:36.776Z,22.72
2022-08-17T00:39:36.841Z,22.76
2022-08-17T00:40:39.802Z,22.75
2022-08-17T00:41:36.763Z,22.75
2022-08-17T00:42:36.760Z,22.79
2022-08-17T00:43:36.753Z,22.78
2022-08-17T00:44:36.751Z,22.85
2022-08-17T00:45:36.744Z,22.75
2022-08-17T00:46:36.743Z,22.78
2022-08-17T00:47:36.735Z,22.72
2022-08-17T00:48:36.736Z,22.79
2022-08-17T00:49:36.729Z,22.76
2022-08-17T00:50:36.735Z,22.81
2022-08-17T00:51:36.719Z,22.93
2022-08-17T00:52:36.717Z,22.85
2022-08-17T00:53:36.715Z,22.78
2022-08-17T00:54:41.863Z,22.93
2022-08-17T00:55:36.703Z,22.86
2022-08-17T00:56:36.799Z,22.94
2022-08-17T00:57:36.693Z,22.99
2022-08-17T00:58:36.836Z,22.99
2022-08-17T00:59:36.684Z,22.93
2022-08-17T01:00:36.682Z,22.97
2022-08-17T01:01:36.731Z,22.96
2022-08-17T01:02:42.434Z,22.94
2022-08-17T01:03:36.684Z,22.88
2022-08-17T01:04:36.667Z,22.81
2022-08-17T01:05:36.760Z,22.79
2022-08-17T01:06:36.657Z,22.82
2022-08-17T01:07:37.825Z,22.75
2022-08-17T01:08:36.656Z,22.75
2022-08-17T01:09:36.656Z,22.67
2022-08-17T01:11:00.084Z,22.72
2022-08-17T01:11:36.632Z,22.69
2022-08-17T01:12:36.630Z,22.64
2022-08-17T01:13:40.671Z,22.69
2022-08-17T01:14:36.624Z,22.70
2022-08-17T01:15:36.616Z,22.75
2022-08-17T01:16:36.614Z,22.70
2022-08-17T01:17:36.606Z,22.75
2022-08-17T01:18:36.605Z,22.72
2022-08-17T01:19:36.596Z,22.66
2022-08-17T01:20:47.877Z,22.70
2022-08-17T01:21:36.586Z,22.64
2022-08-17T01:22:36.585Z,22.70
2022-08-17T01:23:36.578Z,22.70
2022-08-17T01:24:36.574Z,22.69
2022-08-17T01:25:36.575Z,22.60
2022-08-17T01:26:36.569Z,22.64
2022-08-17T01:27:36.559Z,22.64
2022-08-17T01:28:54.560Z,22.67
2022-08-17T01:29:36.550Z,22.66
2022-08-17T01:30:58.895Z,22.64
2022-08-17T01:31:36.542Z,22.70
2022-08-17T01:32:36.539Z,22.70
2022-08-17T01:33:36.535Z,22.66
2022-08-17T01:34:42.939Z,22.61
2022-08-17T01:35:36.523Z,22.67
2022-08-17T01:36:36.521Z,22.66
2022-08-17T01:37:36.514Z,22.54
2022-08-17T01:38:36.512Z,22.59
2022-08-17T01:39:36.612Z,22.59
2022-08-17T01:40:36.502Z,22.54
2022-08-17T01:41:36.497Z,22.56
2022-08-17T01:42:36.496Z,22.60
2022-08-17T01:43:36.486Z,22.59
2022-08-17T01:44:36.486Z,22.61
2022-08-17T01:45:36.478Z,22.57
2022-08-17T01:46:36.478Z,22.60
2022-08-17T01:47:36.468Z,22.59
2022-08-17T01:48:36.467Z,22.61
2022-08-17T01:49:36.459Z,22.60
2022-08-17T01:50:36.458Z,22.61
2022-08-17T01:51:36.450Z,22.56
2022-08-17T01:52:36.448Z,22.61
2022-08-17T01:53:36.442Z,22.66
2022-08-17T01:54:36.441Z,22.63
2022-08-17T01:55:36.432Z,22.59
2022-08-17T01:56:36.430Z,22.63
2022-08-17T01:57:36.423Z,22.60
2022-08-17T01:58:36.421Z,22.60
2022-08-17T01:59:36.414Z,22.59
2022-08-17T02:00:46.850Z,22.57
2022-08-17T02:01:36.511Z,22.46
2022-08-17T02:02:36.403Z,22.54
2022-08-17T02:03:36.396Z,22.60
2022-08-17T02:04:36.393Z,22.64
2022-08-17T02:05:36.386Z,22.61
2022-08-17T02:06:45.146Z,22.63
2022-08-17T02:07:47.981Z,22.70
2022-08-17T02:08:36.989Z,22.67
2022-08-17T02:09:36.368Z,22.74
2022-08-17T02:10:36.367Z,22.76
2022-08-17T02:11:36.359Z,22.84
2022-08-17T02:12:38.443Z,22.81
2022-08-17T02:13:36.351Z,22.75
2022-08-17T02:14:36.350Z,22.78
2022-08-17T02:15:36.339Z,22.79
2022-08-17T02:16:37.906Z,22.85
2022-08-17T02:17:36.337Z,22.81
2022-08-17T02:18:36.330Z,22.81
2022-08-17T02:19:36.323Z,22.89
2022-08-17T02:20:42.317Z,22.84
2022-08-17T02:21:36.313Z,22.89
2022-08-17T02:22:36.314Z,22.84
2022-08-17T02:23:36.311Z,22.93
2022-08-17T02:24:58.960Z,22.88
2022-08-17T02:25:36.312Z,22.88
2022-08-17T02:26:36.295Z,22.76
2022-08-17T02:27:36.290Z,22.66
2022-08-17T02:28:36.288Z,22.69
2022-08-17T02:29:36.280Z,22.63
2022-08-17T02:31:02.202Z,22.66
2022-08-17T02:31:36.268Z,22.59
2022-08-17T02:32:36.267Z,22.66
2022-08-17T02:33:42.716Z,22.64
2022-08-17T02:34:36.273Z,22.66
2022-08-17T02:35:36.253Z,22.66
2022-08-17T02:36:36.250Z,22.67
2022-08-17T02:37:36.245Z,22.67
2022-08-17T02:38:36.240Z,22.76
2022-08-17T02:39:36.313Z,22.75
2022-08-17T02:40:36.772Z,22.75
2022-08-17T02:41:36.226Z,22.74
2022-08-17T02:42:36.223Z,22.78
2022-08-17T02:43:36.215Z,22.82
2022-08-17T02:44:39.895Z,22.82
2022-08-17T02:45:36.207Z,22.86
2022-08-17T02:46:36.205Z,22.85
2022-08-17T02:47:36.208Z,22.85
2022-08-17T02:48:36.197Z,22.85
2022-08-17T02:49:36.190Z,22.88
2022-08-17T02:50:36.189Z,22.96
2022-08-17T02:51:36.182Z,22.96
2022-08-17T02:52:42.002Z,22.96
2022-08-17T02:53:36.343Z,22.99
2022-08-17T02:54:41.442Z,22.99
2022-08-17T02:55:36.168Z,22.99
2022-08-17T02:56:36.161Z,22.99
2022-08-17T02:57:36.156Z,22.97
2022-08-17T02:58:36.323Z,23.00
2022-08-17T02:59:36.147Z,22.96
2022-08-17T03:00:36.144Z,22.94
2022-08-17T03:01:36.186Z,23.01
2022-08-17T03:02:36.136Z,22.94
2022-08-17T03:03:36.129Z,22.93
2022-08-17T03:04:36.129Z,23.00
2022-08-17T03:05:36.124Z,22.99
2022-08-17T03:06:36.117Z,23.01
2022-08-17T03:07:36.110Z,23.03
2022-08-17T03:08:36.108Z,23.00
2022-08-17T03:09:36.107Z,22.96
2022-08-17T03:10:36.101Z,22.97
2022-08-17T03:11:36.095Z,22.91
2022-08-17T03:12:36.092Z,22.94
2022-08-17T03:13:36.087Z,22.94
2022-08-17T03:14:41.135Z,22.93
2022-08-17T03:15:36.079Z,22.94
2022-08-17T03:16:36.075Z,23.03
2022-08-17T03:17:36.070Z,22.94
2022-08-17T03:18:36.067Z,23.01
2022-08-17T03:19:36.059Z,23.01
2022-08-17T03:20:36.057Z,23.00
2022-08-17T03:21:36.051Z,23.07
2022-08-17T03:22:38.559Z,23.11
2022-08-17T03:23:36.042Z,23.07
2022-08-17T03:24:36.042Z,23.09
2022-08-17T03:25:36.033Z,23.09
2022-08-17T03:26:36.037Z,23.03
2022-08-17T03:27:36.025Z,23.21
2022-08-17T03:28:36.023Z,23.18
2022-08-17T03:29:36.019Z,23.16
2022-08-17T03:30:36.015Z,23.14
2022-08-17T03:31:37.042Z,23.18
2022-08-17T03:32:36.008Z,23.14
2022-08-17T03:33:36.008Z,23.09
2022-08-17T03:34:35.997Z,23.06
2022-08-17T03:35:35.993Z,23.07
2022-08-17T03:36:36.265Z,23.15
2022-08-17T03:37:35.983Z,23.06
2022-08-17T03:38:39.218Z,23.11
2022-08-17T03:39:36.043Z,22.99
2022-08-17T03:40:58.020Z,22.97
2022-08-17T03:41:35.967Z,23.09
2022-08-17T03:42:35.964Z,23.04
2022-08-17T03:43:35.957Z,23.09
2022-08-17T03:44:35.956Z,23.03
2022-08-17T03:45:35.953Z,23.04
2022-08-17T03:46:35.951Z,23.01
2022-08-17T03:47:35.940Z,22.97
2022-08-17T03:48:35.938Z,23.04
2022-08-17T03:49:35.933Z,22.99
2022-08-17T03:50:35.932Z,22.99
2022-08-17T03:51:35.976Z,22.96
2022-08-17T03:52:35.921Z,22.96
2022-08-17T03:53:35.917Z,22.89
2022-08-17T03:54:35.912Z,22.86
2022-08-17T03:55:36.507Z,22.89
2022-08-17T03:56:35.903Z,22.79
2022-08-17T03:57:35.902Z,22.86
2022-08-17T03:58:35.895Z,22.78
2022-08-17T03:59:35.892Z,22.81
2022-08-17T04:00:35.889Z,22.81
2022-08-17T04:01:35.963Z,22.79
2022-08-17T04:02:35.878Z,22.76
2022-08-17T04:03:35.874Z,22.76
2022-08-17T04:04:35.870Z,22.88
2022-08-17T04:05:35.866Z,22.84
2022-08-17T04:06:35.860Z,22.78
2022-08-17T04:07:35.855Z,22.79
2022-08-17T04:08:35.850Z,22.91
2022-08-17T04:09:35.848Z,22.88
2022-08-17T04:10:41.291Z,22.93
2022-08-17T04:11:35.842Z,22.84
2022-08-17T04:12:35.833Z,22.89
2022-08-17T04:13:35.832Z,22.81
2022-08-17T04:14:35.825Z,22.88
2022-08-17T04:15:35.821Z,22.79
2022-08-17T04:16:35.816Z,22.89
2022-08-17T04:17:35.914Z,22.94
2022-08-17T04:18:35.810Z,22.89
2022-08-17T04:19:35.805Z,22.93
2022-08-17T04:20:35.800Z,23.00
2022-08-17T04:21:35.799Z,22.99
2022-08-17T04:22:35.790Z,23.00
2022-08-17T04:23:35.789Z,22.97
2022-08-17T04:24:35.781Z,22.97
2022-08-17T04:25:35.779Z,22.94
2022-08-17T04:26:54.152Z,23.01
2022-08-17T04:27:35.769Z,23.11
2022-08-17T04:28:35.762Z,23.12
2022-08-17T04:29:55.072Z,23.01
2022-08-17T04:30:35.756Z,23.11
2022-08-17T04:31:35.751Z,23.11
2022-08-17T04:33:00.440Z,23.15
2022-08-17T04:33:35.746Z,23.19
2022-08-17T04:34:35.738Z,23.18
2022-08-17T04:35:35.735Z,23.22
2022-08-17T04:36:35.729Z,23.16
2022-08-17T04:37:35.726Z,23.26
2022-08-17T04:38:35.721Z,23.23
2022-08-17T04:39:35.757Z,23.22
2022-08-17T04:40:35.719Z,23.23
2022-08-17T04:41:35.710Z,23.21
2022-08-17T04:42:35.704Z,23.25
2022-08-17T04:43:35.702Z,23.26
2022-08-17T04:44:37.494Z,23.31
2022-08-17T04:45:35.691Z,23.31
2022-08-17T04:46:35.685Z,23.34
2022-08-17T04:47:35.683Z,23.31
2022-08-17T04:48:37.415Z,23.35
2022-08-17T04:49:35.676Z,23.37
2022-08-17T04:50:35.670Z,23.37
2022-08-17T04:51:35.667Z,23.38
2022-08-17T04:52:43.645Z,23.38
2022-08-17T04:53:35.659Z,23.41
2022-08-17T04:54:35.652Z,23.32
2022-08-17T04:55:35.649Z,23.35
2022-08-17T04:56:35.642Z,23.34
2022-08-17T04:57:38.462Z,23.37
2022-08-17T04:58:35.635Z,23.52
2022-08-17T04:59:35.633Z,23.56
2022-08-17T05:00:35.628Z,23.49
2022-08-17T05:01:35.682Z,23.41
2022-08-17T05:02:35.621Z,23.38
2022-08-17T05:03:35.617Z,23.34
2022-08-17T05:04:35.637Z,23.34
2022-08-17T05:05:35.611Z,23.35
2022-08-17T05:06:35.606Z,23.35
2022-08-17T05:07:35.600Z,23.32
2022-08-17T05:08:35.597Z,23.32
2022-08-17T05:09:35.593Z,23.29
2022-08-17T05:10:35.586Z,23.31
2022-08-17T05:11:35.586Z,23.32
2022-08-17T05:12:35.578Z,23.35
2022-08-17T05:13:35.677Z,23.34
2022-08-17T05:14:35.573Z,23.34
2022-08-17T05:15:36.048Z,23.37
2022-08-17T05:16:35.576Z,23.29
2022-08-17T05:17:35.561Z,23.34
2022-08-17T05:18:35.554Z,23.39
2022-08-17T05:19:35.553Z,23.34
2022-08-17T05:20:35.547Z,23.37
2022-08-17T05:21:35.546Z,23.34
2022-08-17T05:22:35.540Z,23.39
2022-08-17T05:23:43.070Z,23.39
2022-08-17T05:24:39.091Z,23.37
2022-08-17T05:25:36.198Z,23.35
2022-08-17T05:26:36.523Z,23.45
2022-08-17T05:27:36.122Z,23.38
2022-08-17T05:28:35.515Z,23.38
2022-08-17T05:29:36.031Z,23.45
2022-08-17T05:30:35.507Z,23.44
2022-08-17T05:31:35.505Z,23.41
2022-08-17T05:32:37.951Z,23.35
2022-08-17T05:33:35.497Z,23.39
2022-08-17T05:34:35.492Z,23.38
2022-08-17T05:35:35.491Z,23.31
2022-08-17T05:36:42.632Z,23.31
2022-08-17T05:37:35.483Z,23.32
2022-08-17T05:38:35.478Z,23.25
2022-08-17T05:39:35.499Z,23.35
2022-08-17T05:40:35.468Z,23.26
2022-08-17T05:41:35.467Z,23.29
2022-08-17T05:42:35.462Z,23.41
2022-08-17T05:43:35.459Z,23.38
2022-08-17T05:44:35.452Z,23.38
2022-08-17T05:45:55.755Z,23.42
2022-08-17T05:46:35.446Z,23.38
2022-08-17T05:47:35.443Z,23.49
2022-08-17T05:48:40.159Z,23.39
2022-08-17T05:49:35.436Z,23.37
2022-08-17T05:50:35.430Z,23.52
2022-08-17T05:51:35.426Z,23.44
2022-08-17T05:52:35.424Z,23.50
2022-08-17T05:53:35.717Z,23.52
2022-08-17T05:54:35.414Z,23.45
2022-08-17T05:55:35.411Z,23.49
2022-08-17T05:56:35.409Z,23.57
2022-08-17T05:57:35.403Z,23.60
2022-08-17T05:58:35.399Z,23.71
2022-08-17T05:59:35.395Z,23.77
2022-08-17T06:00:35.390Z,23.82
2022-08-17T06:01:35.479Z,23.82
2022-08-17T06:02:35.385Z,23.86
2022-08-17T06:03:35.382Z,23.96
2022-08-17T06:04:35.374Z,24.05
2022-08-17T06:05:35.373Z,24.06
2022-08-17T06:06:35.367Z,24.16
2022-08-17T06:07:35.365Z,24.19
2022-08-17T06:08:35.364Z,24.16
2022-08-17T06:09:35.357Z,24.16
2022-08-17T06:10:35.354Z,24.18
2022-08-17T06:11:35.388Z,24.33
2022-08-17T06:12:35.347Z,24.26
2022-08-17T06:13:35.343Z,24.30
2022-08-17T06:14:35.338Z,24.31
2022-08-17T06:15:35.337Z,24.34
2022-08-17T06:16:35.331Z,24.29
2022-08-17T06:17:35.330Z,24.37
2022-08-17T06:18:35.326Z,24.46
2022-08-17T06:19:35.322Z,24.44
2022-08-17T06:20:35.317Z,24.39
2022-08-17T06:21:35.316Z,24.49
2022-08-17T06:22:35.311Z,24.59
2022-08-17T06:23:35.309Z,24.59
2022-08-17T06:24:35.309Z,24.63
2022-08-17T06:25:35.320Z,24.70
2022-08-17T06:26:39.590Z,24.71
2022-08-17T06:27:35.295Z,24.71
2022-08-17T06:28:35.290Z,24.79
2022-08-17T06:29:35.290Z,24.71
2022-08-17T06:30:59.365Z,24.74
2022-08-17T06:31:35.281Z,24.77
2022-08-17T06:32:35.280Z,24.79
2022-08-17T06:33:35.279Z,24.74
2022-08-17T06:34:35.273Z,24.89
2022-08-17T06:35:35.271Z,25.04
2022-08-17T06:36:35.265Z,25.02
2022-08-17T06:37:35.267Z,25.27
2022-08-17T06:38:38.431Z,25.35
2022-08-17T06:39:35.293Z,25.42
2022-08-17T06:40:35.254Z,25.51
2022-08-17T06:41:37.932Z,25.61
2022-08-17T06:42:54.959Z,25.72
2022-08-17T06:43:35.245Z,25.74
2022-08-17T06:44:43.371Z,25.71
2022-08-17T06:45:35.240Z,25.72
2022-08-17T06:46:35.236Z,25.86
2022-08-17T06:47:35.235Z,25.96
2022-08-17T06:48:35.231Z,26.03
2022-08-17T06:49:35.230Z,26.03
2022-08-17T06:50:35.224Z,26.01
2022-08-17T06:51:35.226Z,26.11
2022-08-17T06:52:55.667Z,26.12
2022-08-17T06:53:35.223Z,26.23
2022-08-17T06:54:35.217Z,26.27
2022-08-17T06:55:38.184Z,26.35
2022-08-17T06:56:54.855Z,26.39
2022-08-17T06:57:35.212Z,26.51
2022-08-17T06:58:35.210Z,26.44
2022-08-17T06:59:54.924Z,26.57
2022-08-17T07:00:35.312Z,26.44
2022-08-17T07:01:35.223Z,26.56
2022-08-17T07:03:02.076Z,26.60
2022-08-17T07:03:35.199Z,26.57
2022-08-17T07:04:35.196Z,26.56
2022-08-17T07:05:35.195Z,26.60
2022-08-17T07:06:38.077Z,26.64
2022-08-17T07:07:35.191Z,26.60
2022-08-17T07:08:35.535Z,26.50
2022-08-17T07:09:35.187Z,26.41
2022-08-17T07:10:35.195Z,26.36
2022-08-17T07:11:35.193Z,26.41
2022-08-17T07:12:35.189Z,26.28
2022-08-17T07:13:35.192Z,26.11
2022-08-17T07:14:35.188Z,26.04
2022-08-17T07:15:35.180Z,26.04
2022-08-17T07:16:35.287Z,26.04
2022-08-17T07:17:46.814Z,26.03
2022-08-17T07:18:35.169Z,25.94
2022-08-17T07:19:35.169Z,25.98
2022-08-17T07:20:35.176Z,25.97
2022-08-17T07:21:35.166Z,25.96
2022-08-17T07:22:50.321Z,25.98
2022-08-17T07:23:35.159Z,25.91
2022-08-17T07:24:35.156Z,25.98
2022-08-17T07:25:35.157Z,26.08
2022-08-17T07:26:35.152Z,26.24
2022-08-17T07:27:35.153Z,26.27
2022-08-17T07:28:35.152Z,26.29
2022-08-17T07:29:35.148Z,26.28
2022-08-17T07:30:44.670Z,26.28
2022-08-17T07:31:35.150Z,26.32
2022-08-17T07:32:35.140Z,26.31
2022-08-17T07:33:35.146Z,26.35
2022-08-17T07:34:35.137Z,26.49
2022-08-17T07:35:40.673Z,26.54
2022-08-17T07:36:35.134Z,26.53
2022-08-17T07:37:35.133Z,26.54
2022-08-17T07:38:35.129Z,26.69
2022-08-17T07:39:35.194Z,26.73
2022-08-17T07:40:35.222Z,26.84
2022-08-17T07:41:58.650Z,26.88
2022-08-17T07:42:35.133Z,26.98
2022-08-17T07:43:35.123Z,27.05
2022-08-17T07:44:35.120Z,27.11
2022-08-17T07:45:35.119Z,27.08
2022-08-17T07:46:35.127Z,27.08
2022-08-17T07:47:35.201Z,27.11
2022-08-17T07:48:35.152Z,27.06
2022-08-17T07:49:35.114Z,27.28
2022-08-17T07:50:35.110Z,27.34
2022-08-17T07:51:35.110Z,27.45
2022-08-17T07:52:47.624Z,27.48
2022-08-17T07:53:35.107Z,27.69
2022-08-17T07:54:35.104Z,27.69
2022-08-17T07:55:35.117Z,27.74
2022-08-17T07:56:35.099Z,27.95
2022-08-17T07:57:35.105Z,28.01
2022-08-17T07:58:35.098Z,27.98
2022-08-17T07:59:35.107Z,28.05
2022-08-17T08:00:35.097Z,28.11
2022-08-17T08:01:39.632Z,28.17
2022-08-17T08:02:35.121Z,28.32
2022-08-17T08:03:35.094Z,28.24
2022-08-17T08:05:00.476Z,28.28
2022-08-17T08:05:50.608Z,28.38
2022-08-17T08:06:35.130Z,28.43
2022-08-17T08:07:35.091Z,28.52
2022-08-17T08:08:35.120Z,28.57
2022-08-17T08:09:35.089Z,28.67
2022-08-17T08:10:35.090Z,28.74
2022-08-17T08:11:35.090Z,28.89
2022-08-17T08:12:35.127Z,28.91
2022-08-17T08:13:35.225Z,28.92
2022-08-17T08:14:35.087Z,29.08
2022-08-17T08:15:35.084Z,29.07
2022-08-17T08:16:35.086Z,29.11
2022-08-17T08:17:35.084Z,29.20
2022-08-17T08:18:54.498Z,29.23
2022-08-17T08:19:35.082Z,29.27
2022-08-17T08:20:51.312Z,29.37
2022-08-17T08:21:35.082Z,29.23
2022-08-17T08:22:35.089Z,29.03
2022-08-17T08:23:35.083Z,29.05
2022-08-17T08:24:35.084Z,28.91
2022-08-17T08:25:35.083Z,28.76
2022-08-17T08:26:35.086Z,28.73
2022-08-17T08:27:35.081Z,28.76
2022-08-17T08:28:35.085Z,28.65
2022-08-17T08:29:35.082Z,28.64
2022-08-17T08:30:35.087Z,28.65
2022-08-17T08:31:37.753Z,28.69
2022-08-17T08:32:35.085Z,28.64
2022-08-17T08:33:35.082Z,28.55
2022-08-17T08:34:58.817Z,28.64
2022-08-17T08:35:35.081Z,28.64
2022-08-17T08:37:12.856Z,28.72
2022-08-17T08:37:40.515Z,28.61
2022-08-17T08:38:35.084Z,28.57
2022-08-17T08:39:35.149Z,28.60
2022-08-17T08:40:35.083Z,28.54
2022-08-17T08:41:35.081Z,28.46
2022-08-17T08:42:35.084Z,28.42
2022-08-17T08:43:35.080Z,28.39
2022-08-17T08:45:00.687Z,28.40
2022-08-17T08:45:35.080Z,28.32
2022-08-17T08:46:35.082Z,28.33
2022-08-17T08:47:35.516Z,28.42
2022-08-17T08:48:56.982Z,28.36
2022-08-17T08:50:02.015Z,28.38
2022-08-17T08:50:38.251Z,28.32
2022-08-17T08:51:35.098Z,28.30
2022-08-17T08:52:35.081Z,28.45
2022-08-17T08:53:35.082Z,28.52
2022-08-17T08:54:35.080Z,28.54
2022-08-17T08:55:35.082Z,28.48
2022-08-17T08:56:35.098Z,28.55
2022-08-17T08:57:35.096Z,28.57
2022-08-17T08:58:41.807Z,28.61
2022-08-17T08:59:35.080Z,28.67
2022-08-17T09:00:35.085Z,28.72
2022-08-17T09:01:35.160Z,28.82
2022-08-17T09:02:35.182Z,28.89
2022-08-17T09:03:51.912Z,29.03
2022-08-17T09:05:02.797Z,29.10
2022-08-17T09:05:35.077Z,29.07
2022-08-17T09:06:39.371Z,29.07
2022-08-17T09:07:35.075Z,28.94
2022-08-17T09:08:35.078Z,28.97
2022-08-17T09:09:35.075Z,28.95
2022-08-17T09:10:35.080Z,28.82
2022-08-17T09:11:35.076Z,29.07
2022-08-17T09:12:35.083Z,29.05
2022-08-17T09:13:35.079Z,29.02
2022-08-17T09:15:35.078Z,29.05
2022-08-17T09:16:35.074Z,29.08
2022-08-17T09:17:35.076Z,29.05
2022-08-17T09:19:00.613Z,29.14
2022-08-17T09:19:35.077Z,29.17
2022-08-17T09:20:35.078Z,29.21
2022-08-17T09:21:35.078Z,29.25
2022-08-17T09:22:35.074Z,29.41
2022-08-17T09:23:35.074Z,29.48
2022-08-17T09:24:35.074Z,29.60
2022-08-17T09:25:35.075Z,29.58
2022-08-17T09:26:35.074Z,29.60
2022-08-17T09:27:35.077Z,29.63
2022-08-17T09:28:35.217Z,29.63
2022-08-17T09:29:35.261Z,29.70
2022-08-17T09:30:35.114Z,29.70
2022-08-17T09:31:35.129Z,29.69
2022-08-17T09:32:35.117Z,29.62
2022-08-17T09:33:35.119Z,29.69
2022-08-17T09:34:35.083Z,29.74
2022-08-17T09:35:36.891Z,29.89
2022-08-17T09:36:35.077Z,29.89
2022-08-17T09:37:35.085Z,30.01
2022-08-17T09:38:35.077Z,30.00
2022-08-17T09:39:35.129Z,29.99
2022-08-17T09:40:35.076Z,30.00
2022-08-17T09:41:35.078Z,29.99
2022-08-17T09:42:35.077Z,29.91
2022-08-17T09:43:35.080Z,29.69
2022-08-17T09:44:35.079Z,29.78
2022-08-17T09:45:35.084Z,29.85
2022-08-17T09:46:35.082Z,30.00
2022-08-17T09:47:35.086Z,30.18
2022-08-17T09:48:35.082Z,30.16
2022-08-17T09:49:35.084Z,30.10
2022-08-17T09:51:03.527Z,30.06
2022-08-17T09:51:35.085Z,29.84
2022-08-17T09:52:35.097Z,29.73
2022-08-17T09:53:35.086Z,29.73
2022-08-17T09:54:39.592Z,29.82
2022-08-17T09:55:35.101Z,30.03
2022-08-17T09:56:35.113Z,30.06
2022-08-17T09:57:35.090Z,30.11
2022-08-17T09:58:35.116Z,30.21
2022-08-17T09:59:38.517Z,30.29
2022-08-17T10:00:35.089Z,30.38
2022-08-17T10:01:35.228Z,30.53
2022-08-17T10:02:35.092Z,30.40
2022-08-17T10:03:35.091Z,30.45
2022-08-17T10:04:35.093Z,30.34
2022-08-17T10:05:35.093Z,30.36
2022-08-17T10:06:35.092Z,30.37
2022-08-17T10:07:35.094Z,30.56
2022-08-17T10:08:35.092Z,30.60
2022-08-17T10:09:35.099Z,30.79
2022-08-17T10:10:35.121Z,31.01
2022-08-17T10:11:35.095Z,31.05
2022-08-17T10:12:35.097Z,31.16
2022-08-17T10:13:35.101Z,31.13
2022-08-17T10:14:36.487Z,31.16
2022-08-17T10:15:35.100Z,31.22
2022-08-17T10:16:35.100Z,31.18
2022-08-17T10:17:35.104Z,31.27
2022-08-17T10:18:35.111Z,31.16
2022-08-17T10:19:35.104Z,31.07
2022-08-17T10:20:35.109Z,30.94
2022-08-17T10:21:35.109Z,30.85
2022-08-17T10:22:37.922Z,30.72
2022-08-17T10:23:35.160Z,30.32
2022-08-17T10:24:35.110Z,30.18
2022-08-17T10:25:53.463Z,30.25
2022-08-17T10:26:43.059Z,30.42
2022-08-17T10:27:35.115Z,30.63
2022-08-17T10:28:35.117Z,30.86
2022-08-17T10:29:47.317Z,30.93
2022-08-17T10:30:35.218Z,31.09
2022-08-17T10:31:36.174Z,31.12
2022-08-17T10:32:35.118Z,31.20
2022-08-17T10:33:35.122Z,31.12
2022-08-17T10:34:38.785Z,30.94
2022-08-17T10:35:35.224Z,30.86
2022-08-17T10:36:35.124Z,30.76
2022-08-17T10:37:35.128Z,30.61
2022-08-17T10:38:35.126Z,30.37
2022-08-17T10:39:35.207Z,30.23
2022-08-17T10:40:35.128Z,30.29
2022-08-17T10:41:40.044Z,30.18
2022-08-17T10:42:35.232Z,30.19
2022-08-17T10:43:35.133Z,30.25
2022-08-17T10:44:38.659Z,30.36
2022-08-17T10:45:35.154Z,30.29
2022-08-17T10:46:35.349Z,30.42
2022-08-17T10:47:54.752Z,30.37
2022-08-17T10:48:35.136Z,30.36
2022-08-17T10:49:35.144Z,30.40
2022-08-17T10:50:35.141Z,30.32
2022-08-17T10:51:35.156Z,30.32
2022-08-17T10:52:35.144Z,30.42
2022-08-17T10:53:35.148Z,30.28
2022-08-17T10:54:35.154Z,30.32
2022-08-17T10:55:35.146Z,30.13
2022-08-17T10:56:35.146Z,30.08
2022-08-17T10:57:35.151Z,30.25
2022-08-17T10:58:35.148Z,30.23
2022-08-17T10:59:35.149Z,30.23
2022-08-17T11:00:35.273Z,30.21
2022-08-17T11:01:35.213Z,30.26
2022-08-17T11:02:35.152Z,30.34
2022-08-17T11:03:35.153Z,30.37
2022-08-17T11:04:35.154Z,30.44
2022-08-17T11:05:37.943Z,30.56
2022-08-17T11:06:35.156Z,30.63
2022-08-17T11:07:35.169Z,30.73
2022-08-17T11:08:35.159Z,30.73
2022-08-17T11:09:35.159Z,30.85
2022-08-17T11:10:35.158Z,30.96
2022-08-17T11:11:35.161Z,30.86
2022-08-17T11:12:35.160Z,31.01
2022-08-17T11:13:35.164Z,31.03
2022-08-17T11:14:35.163Z,31.12
2022-08-17T11:15:35.164Z,31.37
2022-08-17T11:16:35.164Z,31.31
2022-08-17T11:17:35.175Z,31.47
2022-08-17T11:18:35.169Z,31.52
2022-08-17T11:19:35.171Z,31.57
2022-08-17T11:20:35.178Z,31.53
2022-08-17T11:21:35.174Z,31.47
2022-08-17T11:22:35.176Z,31.59
2022-08-17T11:23:35.175Z,31.56
2022-08-17T11:24:35.178Z,31.54
2022-08-17T11:27:35.290Z,31.94
2022-08-17T11:28:35.232Z,31.92
2022-08-17T11:29:35.188Z,32.12
2022-08-17T11:30:35.389Z,32.10
2022-08-17T11:31:38.417Z,32.24
2022-08-17T11:32:35.189Z,32.19
2022-08-17T11:33:36.601Z,32.14
2022-08-17T11:34:35.196Z,32.21
2022-08-17T11:35:35.208Z,32.16
2022-08-17T11:36:35.201Z,32.02
2022-08-17T11:37:35.200Z,31.75
2022-08-17T11:38:35.202Z,31.82
2022-08-17T11:39:35.264Z,31.72
2022-08-17T11:40:35.207Z,31.87
2022-08-17T11:41:35.210Z,31.79
2022-08-17T11:42:35.414Z,31.74
2022-08-17T11:43:39.537Z,31.75
2022-08-17T11:44:35.213Z,31.85
2022-08-17T11:45:35.220Z,31.95
2022-08-17T11:46:35.218Z,32.05
2022-08-17T11:47:35.422Z,32.19
2022-08-17T11:48:35.667Z,32.24
2022-08-17T11:49:35.226Z,32.13
2022-08-17T11:50:35.227Z,32.25
2022-08-17T11:51:35.230Z,32.31
2022-08-17T11:52:35.232Z,32.36
2022-08-17T11:53:35.234Z,32.51
2022-08-17T11:54:35.237Z,32.41
2022-08-17T11:55:38.410Z,32.28
2022-08-17T11:56:35.239Z,32.25
2022-08-17T11:57:35.244Z,31.99
2022-08-17T11:58:35.257Z,32.10
2022-08-17T11:59:35.248Z,31.94
2022-08-17T12:00:35.247Z,32.06
2022-08-17T12:01:35.456Z,32.02
2022-08-17T12:02:35.350Z,32.07
2022-08-17T12:03:35.256Z,32.14
2022-08-17T12:04:35.387Z,31.90
2022-08-17T12:05:35.286Z,31.99
2022-08-17T12:06:35.262Z,31.95
2022-08-17T12:07:35.269Z,32.07
2022-08-17T12:08:35.269Z,32.13
2022-08-17T12:09:35.270Z,31.99
2022-08-17T12:10:35.273Z,32.10
2022-08-17T12:12:10.927Z,31.99
2022-08-17T12:12:35.276Z,32.02
2022-08-17T12:13:39.586Z,31.99
2022-08-17T12:15:08.370Z,32.05
2022-08-17T12:16:35.285Z,32.12
2022-08-17T12:17:40.194Z,32.21
2022-08-17T12:18:35.292Z,32.27
2022-08-17T12:19:35.292Z,32.24
2022-08-17T12:20:35.301Z,32.28
2022-08-17T12:21:35.297Z,32.19
2022-08-17T12:22:35.303Z,32.19
2022-08-17T12:23:35.302Z,32.12
2022-08-17T12:24:35.304Z,31.92
2022-08-17T12:25:35.304Z,31.76
2022-08-17T12:26:35.309Z,31.82
2022-08-17T12:27:46.174Z,31.87
2022-08-17T12:28:35.311Z,31.84
2022-08-17T12:29:39.156Z,31.75
2022-08-17T12:30:35.315Z,31.84
2022-08-17T12:31:35.320Z,31.76
2022-08-17T12:32:35.319Z,31.64
2022-08-17T12:33:35.373Z,31.68
2022-08-17T12:34:35.325Z,31.85
2022-08-17T12:35:35.431Z,32.09
2022-08-17T12:36:35.327Z,32.16
2022-08-17T12:37:35.332Z,32.22
2022-08-17T12:38:35.333Z,32.22
2022-08-17T12:39:35.392Z,32.31
2022-08-17T12:40:35.337Z,32.49
2022-08-17T12:41:35.342Z,32.59
2022-08-17T12:42:35.342Z,32.50
2022-08-17T12:43:35.346Z,32.43
2022-08-17T12:44:35.346Z,32.25
2022-08-17T12:45:35.348Z,32.09
2022-08-17T12:46:35.355Z,32.17
2022-08-17T12:47:35.365Z,32.25
2022-08-17T12:48:35.380Z,32.17
2022-08-17T12:49:35.365Z,32.10
2022-08-17T12:50:35.359Z,32.12
2022-08-17T12:51:35.361Z,32.03
2022-08-17T12:52:35.363Z,31.90
2022-08-17T12:53:35.368Z,31.75
2022-08-17T12:54:35.368Z,31.67
2022-08-17T12:55:35.372Z,31.40
2022-08-17T12:56:35.372Z,31.49